createdAt,value
2019-01-31T00:00:29.399Z,28.17
2019-01-31T00:03:25.103Z,29.30
2019-01-31T00:05:59.617Z,25.97
2019-01-31T00:08:46.184Z,31.35
2019-01-31T00:11:19.834Z,29.95
2019-01-31T00:14:03.215Z,30.43
2019-01-31T00:16:57.829Z,30.35
2019-01-31T00:19:46.324Z,30.62
2019-01-31T00:22:53.037Z,31.45
2019-01-31T00:25:44.365Z,29.42
2019-01-31T00:28:31.283Z,28.17
2019-01-31T00:31:15.289Z,32.15
2019-01-31T00:33:56.153Z,25.82
2019-01-31T00:36:30.553Z,32.45
2019-01-31T00:39:10.836Z,34.05
2019-01-31T00:41:51.264Z,30.88
2019-01-31T00:44:32.020Z,33.50
2019-01-31T00:47:03.641Z,33.30
2019-01-31T00:49:41.372Z,32.53
2019-01-31T00:52:13.109Z,30.70
2019-01-31T00:54:47.543Z,35.10
2019-01-31T00:57:44.190Z,30.85
2019-01-31T01:00:31.277Z,36.68
2019-01-31T01:03:05.438Z,33.67
2019-01-31T01:05:45.686Z,32.33
2019-01-31T01:08:20.080Z,36.23
2019-01-31T01:11:09.243Z,37.98
2019-01-31T01:13:55.738Z,37.33
2019-01-31T01:16:27.427Z,30.40
2019-01-31T01:19:17.276Z,35.70
2019-01-31T01:21:51.764Z,36.15
2019-01-31T01:24:26.053Z,36.48
2019-01-31T01:27:14.357Z,36.38
2019-01-31T01:29:51.743Z,37.78
2019-01-31T01:32:32.305Z,39.27
2019-01-31T01:35:06.963Z,38.00
2019-01-31T01:37:59.815Z,37.87
2019-01-31T01:40:40.186Z,38.37
2019-01-31T01:43:28.715Z,40.63
2019-01-31T01:46:00.437Z,35.08
2019-01-31T01:48:53.089Z,37.07
2019-01-31T01:51:36.473Z,37.27
2019-01-31T01:54:13.385Z,37.10
2019-01-31T01:56:47.511Z,39.07
2019-01-31T01:59:31.191Z,39.43
2019-01-31T02:02:28.719Z,39.10
2019-01-31T02:05:09.027Z,39.40
2019-01-31T02:07:58.503Z,38.57
2019-01-31T02:10:35.953Z,38.70
2019-01-31T02:13:19.365Z,38.77
2019-01-31T02:16:02.972Z,38.53
2019-01-31T02:18:37.254Z,40.50
2019-01-31T02:21:11.829Z,38.47
2019-01-31T02:24:01.542Z,39.43
2019-01-31T02:26:55.396Z,39.27
2019-01-31T02:29:35.897Z,41.00
2019-01-31T02:32:13.425Z,39.43
2019-01-31T02:34:54.292Z,40.07
2019-01-31T02:37:54.726Z,38.50
2019-01-31T02:40:55.151Z,39.43
2019-01-31T02:43:32.575Z,39.47
2019-01-31T02:46:16.191Z,40.30
2019-01-31T02:49:17.983Z,42.00
2019-01-31T02:51:52.288Z,42.90
2019-01-31T02:54:23.966Z,42.20
2019-01-31T02:57:07.710Z,40.83
2019-01-31T03:00:12.847Z,41.40
2019-01-31T03:03:03.991Z,41.97
2019-01-31T03:05:44.321Z,43.47
2019-01-31T03:08:24.679Z,39.67
2019-01-31T03:10:56.355Z,42.23
2019-01-31T03:13:33.884Z,42.98
2019-01-31T03:16:26.498Z,42.73
2019-01-31T03:19:19.179Z,41.10
2019-01-31T03:22:07.734Z,43.60
2019-01-31T03:24:45.140Z,42.73
2019-01-31T03:27:44.839Z,41.20
2019-01-31T03:30:34.618Z,42.07
2019-01-31T03:33:15.133Z,43.30
2019-01-31T03:36:02.993Z,40.87
2019-01-31T03:38:55.068Z,41.17
2019-01-31T03:41:33.040Z,37.47
2019-01-31T03:44:31.638Z,43.93
2019-01-31T03:47:06.051Z,45.40
2019-01-31T03:49:55.833Z,41.07
2019-01-31T03:52:39.000Z,41.43
2019-01-31T03:55:22.255Z,36.57
2019-01-31T03:57:56.681Z,45.37
2019-01-31T04:00:31.348Z,40.40
2019-01-31T04:03:02.985Z,42.90
2019-01-31T04:05:37.850Z,40.27
2019-01-31T04:08:06.467Z,41.37
2019-01-31T04:10:34.933Z,41.40
2019-01-31T04:13:03.434Z,43.57
2019-01-31T04:15:31.972Z,43.47
2019-01-31T04:18:00.435Z,43.63
2019-01-31T04:20:28.939Z,41.60
2019-01-31T04:22:57.407Z,44.83
2019-01-31T04:25:25.888Z,45.03
2019-01-31T04:27:54.391Z,43.73
2019-01-31T04:30:23.132Z,44.60
2019-01-31T04:32:51.612Z,44.83
2019-01-31T04:35:20.137Z,44.60
2019-01-31T04:37:48.611Z,44.77
2019-01-31T04:40:17.644Z,46.40
2019-01-31T04:42:46.146Z,46.73
2019-01-31T04:45:14.676Z,46.20
2019-01-31T04:47:43.161Z,47.00
2019-01-31T04:50:13.959Z,45.13
2019-01-31T04:52:42.426Z,46.27
2019-01-31T04:55:11.212Z,45.67
2019-01-31T04:57:39.667Z,45.67
2019-01-31T05:00:14.372Z,47.37
2019-01-31T05:02:42.907Z,44.37
2019-01-31T05:05:11.496Z,42.97
2019-01-31T05:07:40.231Z,40.57
2019-01-31T05:10:13.522Z,44.63
2019-01-31T05:12:42.116Z,47.87
2019-01-31T05:15:12.818Z,43.67
2019-01-31T05:17:41.284Z,46.33
2019-01-31T05:20:14.905Z,48.10
2019-01-31T05:22:43.366Z,46.47
2019-01-31T05:25:13.466Z,49.60
2019-01-31T05:27:43.126Z,44.57
2019-01-31T05:30:14.129Z,47.43
2019-01-31T05:32:42.587Z,45.97
2019-01-31T05:35:11.916Z,43.90
2019-01-31T05:37:40.389Z,42.47
2019-01-31T05:40:11.570Z,47.70
2019-01-31T05:42:40.087Z,45.43
2019-01-31T05:45:11.887Z,46.10
2019-01-31T05:47:40.378Z,47.10
2019-01-31T05:50:14.142Z,43.07
2019-01-31T05:52:42.601Z,43.63
2019-01-31T05:55:12.282Z,45.60
2019-01-31T05:57:40.746Z,48.30
2019-01-31T06:00:12.386Z,42.27
2019-01-31T06:02:40.868Z,44.93
2019-01-31T06:05:10.505Z,46.40
2019-01-31T06:07:38.939Z,48.33
2019-01-31T06:10:10.387Z,47.50
2019-01-31T06:12:38.834Z,46.93
2019-01-31T06:15:10.471Z,43.60
2019-01-31T06:17:38.975Z,47.70
2019-01-31T06:20:10.373Z,48.80
2019-01-31T06:22:38.840Z,47.27
2019-01-31T06:25:07.446Z,50.57
2019-01-31T06:27:35.893Z,47.27
2019-01-31T06:30:07.358Z,47.50
2019-01-31T06:32:35.846Z,45.90
2019-01-31T06:35:06.650Z,47.37
2019-01-31T06:37:35.104Z,45.77
2019-01-31T06:40:04.925Z,47.03
2019-01-31T06:42:33.379Z,45.00
2019-01-31T06:45:01.847Z,45.20
2019-01-31T06:47:30.371Z,51.27
2019-01-31T06:49:58.830Z,49.40
2019-01-31T06:52:27.371Z,48.07
2019-01-31T06:54:55.911Z,48.73
2019-01-31T06:57:24.373Z,50.07
2019-01-31T06:59:52.861Z,47.77
2019-01-31T07:02:21.361Z,46.93
2019-01-31T07:04:49.843Z,50.67
2019-01-31T07:07:18.317Z,51.90
2019-01-31T07:09:46.810Z,47.97
2019-01-31T07:12:16.255Z,48.20
2019-01-31T07:14:44.710Z,46.07
2019-01-31T07:17:13.322Z,49.50
2019-01-31T07:19:41.733Z,44.70
2019-01-31T07:22:10.284Z,47.57
2019-01-31T07:24:38.782Z,50.20
2019-01-31T07:27:07.243Z,49.60
2019-01-31T07:29:35.716Z,49.07
2019-01-31T07:32:04.283Z,50.60
2019-01-31T07:34:32.742Z,47.60
2019-01-31T07:37:01.202Z,46.33
2019-01-31T07:39:29.722Z,50.37
2019-01-31T07:41:58.186Z,46.53
2019-01-31T07:44:26.648Z,40.27
2019-01-31T07:46:55.138Z,46.53
2019-01-31T07:49:23.612Z,48.87
2019-01-31T07:51:52.075Z,47.47
2019-01-31T07:54:20.739Z,48.23
2019-01-31T07:56:49.193Z,49.27
2019-01-31T07:59:17.660Z,48.30
2019-01-31T08:01:46.183Z,49.70
2019-01-31T08:04:14.752Z,48.60
2019-01-31T08:06:43.198Z,43.70
2019-01-31T08:09:11.703Z,49.50
2019-01-31T08:11:40.174Z,46.60
2019-01-31T08:14:09.772Z,45.63
2019-01-31T08:16:38.278Z,47.57
2019-01-31T08:19:06.818Z,46.13
2019-01-31T08:21:35.294Z,47.70
2019-01-31T08:24:03.784Z,48.30
2019-01-31T08:26:32.251Z,48.20
2019-01-31T08:29:00.717Z,47.60
2019-01-31T08:31:29.237Z,49.40
2019-01-31T08:33:57.724Z,48.10
2019-01-31T08:36:26.171Z,50.13
2019-01-31T08:38:54.675Z,45.50
2019-01-31T08:41:23.164Z,47.57
2019-01-31T08:43:51.638Z,45.00
2019-01-31T08:46:20.139Z,43.33
2019-01-31T08:48:48.612Z,49.93
2019-01-31T08:51:17.077Z,49.47
2019-01-31T08:53:45.583Z,49.50
2019-01-31T08:56:14.063Z,50.57
2019-01-31T08:58:42.545Z,50.50
2019-01-31T09:01:11.029Z,45.50
2019-01-31T09:03:39.486Z,46.73
2019-01-31T09:06:07.962Z,45.17
2019-01-31T09:08:36.476Z,46.07
2019-01-31T09:11:05.105Z,47.77
2019-01-31T09:13:33.559Z,50.53
2019-01-31T09:16:03.152Z,50.47
2019-01-31T09:18:31.613Z,48.87
2019-01-31T09:21:12.494Z,47.87
2019-01-31T09:23:47.065Z,46.40
2019-01-31T09:26:33.713Z,45.70
2019-01-31T09:29:08.004Z,46.40
2019-01-31T09:31:56.365Z,45.43
2019-01-31T09:34:56.739Z,46.30
2019-01-31T09:37:55.519Z,46.70
2019-01-31T09:40:39.316Z,44.67
2019-01-31T09:43:16.178Z,47.67
2019-01-31T09:45:56.865Z,42.80
2019-01-31T09:48:34.139Z,45.43
2019-01-31T09:51:26.816Z,46.40
2019-01-31T09:54:04.306Z,46.60
2019-01-31T09:56:55.637Z,46.47
2019-01-31T09:59:36.112Z,45.97
2019-01-31T10:02:24.144Z,44.60
2019-01-31T10:05:01.376Z,45.30
2019-01-31T10:07:41.759Z,45.60
2019-01-31T10:10:36.059Z,44.17
2019-01-31T10:13:10.439Z,49.53
2019-01-31T10:15:47.509Z,45.07
2019-01-31T10:18:37.045Z,47.60
2019-01-31T10:21:11.776Z,46.00
2019-01-31T10:23:49.352Z,46.23
2019-01-31T10:26:23.778Z,42.60
2019-01-31T10:29:22.018Z,43.47
2019-01-31T10:32:02.898Z,46.10
2019-01-31T10:34:53.975Z,46.90
2019-01-31T10:37:28.381Z,43.50
2019-01-31T10:40:33.590Z,45.20
2019-01-31T10:43:23.122Z,44.60
2019-01-31T10:46:00.044Z,40.27
2019-01-31T10:48:50.067Z,48.63
2019-01-31T10:51:41.179Z,45.73
2019-01-31T10:54:18.498Z,46.37
2019-01-31T10:56:52.683Z,45.27
2019-01-31T10:59:24.357Z,43.03
2019-01-31T11:01:55.990Z,44.60
2019-01-31T11:04:45.772Z,42.67
2019-01-31T11:07:26.385Z,42.20
2019-01-31T11:10:18.924Z,44.90
2019-01-31T11:13:00.709Z,44.20
2019-01-31T11:15:44.228Z,43.33
2019-01-31T11:18:24.278Z,43.43
2019-01-31T11:21:22.356Z,45.20
2019-01-31T11:23:53.987Z,44.90
2019-01-31T11:26:31.339Z,43.80
2019-01-31T11:29:05.653Z,41.13
2019-01-31T11:31:45.697Z,42.40
2019-01-31T11:34:37.743Z,42.43
2019-01-31T11:37:27.322Z,42.97
2019-01-31T11:39:59.239Z,43.60
2019-01-31T11:42:42.128Z,43.50
2019-01-31T11:45:25.841Z,42.67
2019-01-31T11:48:17.349Z,40.90
2019-01-31T11:51:11.736Z,43.10
2019-01-31T11:53:58.280Z,43.20
2019-01-31T11:56:45.032Z,40.80
2019-01-31T11:59:13.594Z,44.43
2019-01-31T12:01:42.209Z,40.57
2019-01-31T12:04:10.906Z,41.33
2019-01-31T12:06:39.588Z,41.30
2019-01-31T12:09:10.701Z,46.93
2019-01-31T12:11:39.194Z,43.17
2019-01-31T12:14:07.705Z,46.50
2019-01-31T12:16:36.257Z,45.10
2019-01-31T12:19:07.484Z,42.40
2019-01-31T12:21:35.541Z,43.50
2019-01-31T12:24:04.075Z,44.50
2019-01-31T12:26:32.529Z,42.93
2019-01-31T12:29:01.044Z,39.93
2019-01-31T12:31:29.498Z,41.53
2019-01-31T12:33:57.958Z,44.33
2019-01-31T12:36:26.445Z,39.50
2019-01-31T12:38:55.162Z,41.40
2019-01-31T12:41:23.670Z,44.83
2019-01-31T12:43:52.175Z,47.50
2019-01-31T12:46:20.710Z,43.43
2019-01-31T12:48:49.167Z,42.70
2019-01-31T12:51:17.657Z,42.67
2019-01-31T12:53:46.118Z,43.00
2019-01-31T12:56:14.572Z,41.13
2019-01-31T12:58:43.079Z,39.53
2019-01-31T13:01:11.619Z,38.43
2019-01-31T13:03:40.091Z,42.33
2019-01-31T13:06:08.598Z,40.70
2019-01-31T13:08:37.064Z,41.80
2019-01-31T13:11:05.666Z,39.70
2019-01-31T13:13:45.176Z,41.77
2019-01-31T13:16:04.655Z,41.27
2019-01-31T13:18:33.123Z,40.03
2019-01-31T13:21:01.609Z,36.10
2019-01-31T13:23:30.986Z,41.03
2019-01-31T13:25:59.454Z,39.67
2019-01-31T13:28:28.027Z,43.10
2019-01-31T13:30:56.579Z,43.70
2019-01-31T13:33:25.034Z,43.40
2019-01-31T13:35:53.521Z,38.90
2019-01-31T13:38:21.985Z,46.10
2019-01-31T13:40:50.529Z,45.53
2019-01-31T13:43:19.116Z,46.23
2019-01-31T13:45:47.575Z,46.23
2019-01-31T13:48:16.026Z,44.87
2019-01-31T13:50:44.619Z,47.47
2019-01-31T13:53:13.217Z,40.80
2019-01-31T13:55:41.851Z,46.70
2019-01-31T13:58:10.478Z,44.73
2019-01-31T14:00:39.336Z,44.87
2019-01-31T14:03:07.897Z,42.83
2019-01-31T14:05:36.373Z,43.50
2019-01-31T14:08:05.188Z,46.00
2019-01-31T14:10:33.641Z,48.33
2019-01-31T14:13:02.139Z,45.07
2019-01-31T14:15:34.067Z,43.87
2019-01-31T14:18:02.771Z,49.00
2019-01-31T14:20:31.293Z,43.43
2019-01-31T14:23:00.312Z,41.77
2019-01-31T14:25:29.803Z,44.93
2019-01-31T14:27:58.307Z,46.10
2019-01-31T14:30:34.735Z,46.27
2019-01-31T14:33:03.481Z,44.07
2019-01-31T14:35:32.146Z,42.67
2019-01-31T14:38:00.754Z,43.93
2019-01-31T14:40:29.247Z,43.07
2019-01-31T14:42:57.748Z,47.93
2019-01-31T14:45:26.571Z,44.90
2019-01-31T14:47:55.840Z,47.20
2019-01-31T14:50:32.397Z,42.53
2019-01-31T14:53:01.039Z,44.73
2019-01-31T14:55:30.199Z,46.33
2019-01-31T14:57:58.773Z,47.80
2019-01-31T15:00:31.966Z,47.47
2019-01-31T15:03:00.435Z,44.60
2019-01-31T15:05:29.662Z,43.83
2019-01-31T15:07:58.142Z,45.17
2019-01-31T15:10:28.648Z,43.67
2019-01-31T15:12:57.238Z,47.67
2019-01-31T15:15:25.716Z,46.37
2019-01-31T15:17:54.652Z,48.53
2019-01-31T15:20:37.794Z,47.80
2019-01-31T15:23:02.752Z,47.70
2019-01-31T15:25:31.288Z,49.20
2019-01-31T15:28:00.973Z,46.53
2019-01-31T15:30:32.884Z,48.60
2019-01-31T15:33:02.535Z,50.13
2019-01-31T15:35:31.123Z,49.20
2019-01-31T15:37:59.578Z,44.37
2019-01-31T15:40:34.327Z,48.27
2019-01-31T15:43:03.068Z,46.23
2019-01-31T15:45:31.603Z,49.03
2019-01-31T15:48:00.069Z,49.10
2019-01-31T15:50:28.651Z,48.63
2019-01-31T15:52:57.203Z,51.77
2019-01-31T15:55:27.015Z,49.07
2019-01-31T15:57:55.669Z,48.03
2019-01-31T16:00:45.264Z,41.30
2019-01-31T16:03:16.693Z,47.97
2019-01-31T16:05:45.331Z,50.60
2019-01-31T16:08:14.046Z,48.30
2019-01-31T16:10:42.663Z,49.27
2019-01-31T16:13:11.309Z,49.57
2019-01-31T16:15:40.191Z,53.20
2019-01-31T16:18:10.506Z,45.97
2019-01-31T16:20:39.043Z,50.03
2019-01-31T16:23:09.154Z,53.13
2019-01-31T16:25:37.733Z,48.70
2019-01-31T16:28:06.348Z,46.77
2019-01-31T16:30:35.017Z,50.10
2019-01-31T16:33:03.633Z,49.00
2019-01-31T16:35:32.483Z,50.53
2019-01-31T16:38:01.703Z,47.40
2019-01-31T16:40:30.897Z,48.23
2019-01-31T16:43:00.113Z,51.30
2019-01-31T16:45:28.646Z,49.70
2019-01-31T16:47:57.145Z,48.23
2019-01-31T16:50:25.793Z,52.60
2019-01-31T16:52:54.260Z,49.20
2019-01-31T16:55:30.196Z,49.17
2019-01-31T16:57:58.897Z,48.20
2019-01-31T17:00:32.219Z,50.13
2019-01-31T17:03:01.506Z,49.30
2019-01-31T17:05:31.925Z,52.37
2019-01-31T17:08:00.912Z,49.80
2019-01-31T17:10:29.505Z,52.27
2019-01-31T17:12:58.062Z,54.20
2019-01-31T17:15:26.815Z,51.83
2019-01-31T17:17:55.395Z,49.63
2019-01-31T17:20:27.051Z,49.23
2019-01-31T17:22:55.512Z,49.23
2019-01-31T17:25:24.086Z,48.00
2019-01-31T17:27:52.929Z,48.90
2019-01-31T17:30:26.106Z,48.47
2019-01-31T17:32:54.838Z,51.50
2019-01-31T17:35:23.545Z,47.23
2019-01-31T17:37:52.101Z,48.80
2019-01-31T17:40:28.830Z,48.30
2019-01-31T17:42:57.304Z,50.43
2019-01-31T17:45:30.349Z,48.43
2019-01-31T17:47:57.905Z,49.93
2019-01-31T17:50:26.402Z,49.80
2019-01-31T17:52:54.854Z,50.60
2019-01-31T17:55:25.115Z,52.43
2019-01-31T17:57:53.650Z,50.23
2019-01-31T18:00:31.877Z,49.80
2019-01-31T18:03:00.342Z,49.93
2019-01-31T18:05:28.880Z,49.80
2019-01-31T18:07:57.399Z,47.47
2019-01-31T18:10:25.875Z,51.20
2019-01-31T18:12:54.429Z,49.87
2019-01-31T18:15:22.938Z,51.97
2019-01-31T18:17:51.394Z,51.63
2019-01-31T18:20:21.602Z,52.63
2019-01-31T18:22:50.292Z,53.63
2019-01-31T18:25:18.749Z,51.93
2019-01-31T18:27:47.209Z,55.30
2019-01-31T18:30:18.897Z,54.50
2019-01-31T18:32:47.552Z,50.03
2019-01-31T18:35:17.080Z,51.93
2019-01-31T18:37:46.721Z,51.87
2019-01-31T18:40:29.397Z,51.80
2019-01-31T18:42:57.909Z,51.90
2019-01-31T18:45:29.103Z,54.17
2019-01-31T18:47:57.611Z,52.47
2019-01-31T18:50:31.363Z,51.97
2019-01-31T18:52:59.829Z,51.17
2019-01-31T18:55:29.028Z,49.53
2019-01-31T18:57:57.785Z,52.20
2019-01-31T19:00:28.683Z,53.57
2019-01-31T19:02:57.326Z,53.60
2019-01-31T19:05:25.923Z,53.10
2019-01-31T19:07:54.950Z,50.50
2019-01-31T19:10:23.649Z,51.23
2019-01-31T19:12:52.252Z,51.23
2019-01-31T19:15:25.192Z,52.27
2019-01-31T19:18:04.949Z,50.37
2019-01-31T19:20:29.525Z,51.77
2019-01-31T19:22:59.838Z,50.10
2019-01-31T19:25:28.740Z,52.53
2019-01-31T19:27:57.355Z,52.70
2019-01-31T19:30:34.708Z,50.20
2019-01-31T19:33:03.365Z,51.47
2019-01-31T19:35:31.969Z,51.20
2019-01-31T19:38:02.398Z,52.97
2019-01-31T19:40:33.166Z,50.47
2019-01-31T19:43:01.703Z,54.10
2019-01-31T19:45:37.896Z,52.77
2019-01-31T19:48:06.612Z,51.77
2019-01-31T19:50:35.168Z,49.57
2019-01-31T19:53:04.755Z,54.50
2019-01-31T19:55:33.356Z,52.30
2019-01-31T19:58:01.993Z,52.90
2019-01-31T20:00:30.570Z,53.57
2019-01-31T20:02:59.048Z,55.60
2019-01-31T20:05:27.587Z,53.27
2019-01-31T20:07:56.544Z,54.27
2019-01-31T20:10:27.370Z,55.10
2019-01-31T20:12:56.301Z,52.98
2019-01-31T20:15:24.975Z,55.03
2019-01-31T20:17:53.520Z,52.90
2019-01-31T20:20:26.462Z,50.77
2019-01-31T20:22:55.909Z,51.83
2019-01-31T20:25:24.622Z,52.90
2019-01-31T20:27:53.166Z,53.07
2019-01-31T20:30:27.574Z,53.50
2019-01-31T20:32:56.562Z,52.93
2019-01-31T20:35:25.131Z,57.83
2019-01-31T20:37:53.693Z,57.40
2019-01-31T20:40:25.456Z,55.17
2019-01-31T20:42:54.272Z,54.93
2019-01-31T20:45:22.818Z,51.80
2019-01-31T20:47:51.301Z,51.10
2019-01-31T20:50:25.664Z,53.47
2019-01-31T20:52:54.366Z,53.05
2019-01-31T20:55:23.007Z,52.00
2019-01-31T20:57:51.567Z,54.87
2019-01-31T21:00:33.368Z,49.30
2019-01-31T21:03:01.961Z,50.83
2019-01-31T21:05:30.577Z,50.67
2019-01-31T21:07:59.135Z,54.10
2019-01-31T21:10:27.823Z,51.95
2019-01-31T21:12:56.424Z,53.92
2019-01-31T21:15:26.122Z,52.03
2019-01-31T21:17:54.921Z,53.10
2019-01-31T21:20:26.414Z,50.92
2019-01-31T21:22:55.585Z,51.18
2019-01-31T21:25:24.352Z,54.33
2019-01-31T21:27:52.982Z,53.50
2019-01-31T21:30:30.843Z,52.40
2019-01-31T21:32:59.415Z,53.30
2019-01-31T21:35:28.720Z,53.00
2019-01-31T21:37:57.378Z,52.03
2019-01-31T21:40:28.087Z,48.60
2019-01-31T21:42:57.992Z,52.40
2019-01-31T21:45:26.732Z,52.15
2019-01-31T21:47:55.279Z,49.63
2019-01-31T21:50:30.221Z,51.33
2019-01-31T21:52:58.785Z,50.35
2019-01-31T21:55:27.419Z,49.85
2019-01-31T21:57:56.019Z,50.20
2019-01-31T22:00:32.388Z,52.75
2019-01-31T22:03:01.213Z,50.98
2019-01-31T22:05:29.865Z,48.83
2019-01-31T22:07:58.415Z,50.12
2019-01-31T22:10:27.081Z,50.12
2019-01-31T22:12:56.057Z,51.73
2019-01-31T22:15:26.655Z,48.83
2019-01-31T22:17:59.765Z,50.75
2019-01-31T22:20:25.706Z,50.50
2019-01-31T22:22:54.361Z,53.85
2019-01-31T22:25:23.769Z,51.20
2019-01-31T22:27:52.398Z,53.80
2019-01-31T22:30:29.516Z,54.55
2019-01-31T22:32:58.142Z,49.63
2019-01-31T22:35:26.830Z,48.58
2019-01-31T22:37:55.423Z,51.28
2019-01-31T22:40:24.053Z,50.52
2019-01-31T22:42:52.599Z,48.50
2019-01-31T22:45:23.519Z,49.60
2019-01-31T22:47:52.142Z,50.30
2019-01-31T22:50:22.654Z,49.93
2019-01-31T22:52:51.629Z,51.83
2019-01-31T22:55:22.228Z,54.48
2019-01-31T22:57:50.792Z,49.38
2019-01-31T23:00:44.796Z,52.50
2019-01-31T23:03:13.417Z,50.63
2019-01-31T23:05:42.238Z,50.12
2019-01-31T23:08:10.827Z,48.15
2019-01-31T23:10:39.379Z,55.33
2019-01-31T23:13:07.941Z,49.93
2019-01-31T23:15:36.562Z,49.15
2019-01-31T23:18:06.133Z,50.45
2019-01-31T23:20:34.753Z,50.50
2019-01-31T23:23:03.331Z,50.73
2019-01-31T23:25:39.811Z,50.80
2019-01-31T23:28:02.178Z,50.00
2019-01-31T23:30:30.782Z,52.15
2019-01-31T23:32:59.352Z,50.67
2019-01-31T23:35:27.916Z,49.88
2019-01-31T23:37:56.530Z,54.23
2019-01-31T23:40:25.081Z,51.25
2019-01-31T23:42:53.648Z,50.17
2019-01-31T23:45:22.904Z,51.05
2019-01-31T23:47:51.601Z,49.25
2019-01-31T23:50:20.142Z,50.00
2019-01-31T23:52:48.662Z,49.97
2019-01-31T23:55:17.883Z,52.03
2019-01-31T23:57:46.444Z,51.18
